Time;durP1;ratioP1;P1;durP2;ratioP2;P2;SDS_P1;SDS_P2;PMS_P1;PMS_P2;Temp;Humidity;BMP_temperature;BMP_pressure;BME280_temperature;BME280_humidity;BME280_pressure;Samples;Min_cycle;Max_cycle;Signal;HPM_P1;HPM_P2
2023/08/30 00:00:49;;;;;;;10.25;6.32;;;15.10;99.90;;;;;;6132093;23;20020;-85
2023/08/30 00:03:15;;;;;;;13.75;11.13;;;15.00;99.90;;;;;;6132540;23;20068;-85
2023/08/30 00:05:42;;;;;;;10.80;6.57;;;15.00;99.90;;;;;;6157037;23;20139;-85
2023/08/30 00:08:08;;;;;;;14.23;12.48;;;14.90;99.90;;;;;;6157052;23;20013;-85
2023/08/30 00:10:33;;;;;;;13.57;12.07;;;14.90;99.90;;;;;;6157024;23;20100;-85
2023/08/30 00:12:59;;;;;;;11.90;6.80;;;14.90;99.90;;;;;;6157386;23;20045;-84
2023/08/30 00:15:25;;;;;;;13.45;6.82;;;14.90;99.90;;;;;;6157414;23;20009;-85
2023/08/30 00:17:54;;;;;;;13.18;11.77;;;14.80;99.90;;;;;;6157349;23;20036;-85
2023/08/30 00:20:20;;;;;;;12.77;6.65;;;14.80;99.90;;;;;;6156675;23;20460;-85
2023/08/30 00:22:50;;;;;;;12.52;11.23;;;14.80;99.90;;;;;;6132392;23;20356;-84
2023/08/30 00:25:16;;;;;;;13.80;12.15;;;14.80;99.90;;;;;;6156835;23;20016;-84
2023/08/30 00:27:42;;;;;;;12.75;7.00;;;14.80;99.90;;;;;;6156924;23;20013;-85
2023/08/30 00:30:09;;;;;;;11.05;6.78;;;14.70;99.90;;;;;;6156774;23;20398;-85
2023/08/30 00:32:35;;;;;;;10.57;5.88;;;14.60;99.90;;;;;;6157256;23;20017;-85
2023/08/30 00:35:01;;;;;;;10.60;6.20;;;14.60;99.90;;;;;;6133018;23;20005;-85
2023/08/30 00:37:26;;;;;;;12.40;10.43;;;14.50;99.90;;;;;;6157805;23;20095;-85
2023/08/30 00:39:52;;;;;;;14.18;12.25;;;14.60;99.90;;;;;;6156733;23;20447;-85
2023/08/30 00:42:17;;;;;;;12.50;7.10;;;14.60;99.90;;;;;;6156892;23;20009;-85
2023/08/30 00:44:43;;;;;;;13.50;7.70;;;14.60;99.90;;;;;;6132141;23;20068;-85
2023/08/30 00:47:09;;;;;;;11.90;6.57;;;14.60;99.90;;;;;;6156936;23;20063;-85
2023/08/30 00:49:34;;;;;;;13.48;11.10;;;14.60;99.90;;;;;;6131867;23;20009;-84
2023/08/30 00:52:05;;;;;;;14.27;11.30;;;14.60;99.90;;;;;;6132599;23;20009;-85
2023/08/30 00:54:31;;;;;;;12.65;6.72;;;14.60;99.90;;;;;;6157246;23;20020;-85
2023/08/30 00:56:57;;;;;;;11.10;6.45;;;14.50;99.90;;;;;;6157067;23;20008;-84
2023/08/30 00:59:24;;;;;;;14.18;12.00;;;14.50;99.90;;;;;;6156732;23;20067;-85
2023/08/30 01:01:50;;;;;;;11.48;6.68;;;14.50;99.90;;;;;;6156917;23;20638;-85
2023/08/30 01:04:17;;;;;;;13.05;11.40;;;14.50;99.90;;;;;;6156916;23;20328;-85
2023/08/30 01:06:43;;;;;;;10.80;5.70;;;14.40;99.90;;;;;;6156873;23;20063;-85
2023/08/30 01:09:09;;;;;;;11.02;5.40;;;14.40;99.90;;;;;;6156368;23;20008;-85
2023/08/30 01:12:03;;;;;;;13.32;6.57;;;14.30;99.90;;;;;;6131974;23;20088;-85
2023/08/30 01:14:42;;;;;;;10.80;6.47;;;14.30;99.90;;;;;;6156903;23;20017;-85
2023/08/30 01:17:09;;;;;;;13.40;12.00;;;14.20;99.90;;;;;;6132556;23;20005;-85
2023/08/30 01:19:58;;;;;;;14.43;12.50;;;14.30;99.90;;;;;;6156819;23;20148;-85
2023/08/30 01:22:48;;;;;;;13.77;11.60;;;14.30;99.90;;;;;;6156754;23;20489;-85
2023/08/30 01:25:23;;;;;;;11.00;6.25;;;14.30;99.90;;;;;;6156587;23;20045;-84
2023/08/30 01:27:50;;;;;;;11.57;6.63;;;14.20;99.90;;;;;;6131649;23;20092;-85
2023/08/30 01:30:18;;;;;;;14.93;11.93;;;14.10;99.90;;;;;;6132008;23;20012;-85
2023/08/30 01:32:46;;;;;;;11.88;6.53;;;14.20;99.90;;;;;;6131983;23;20474;-85
2023/08/30 01:35:17;;;;;;;11.48;6.97;;;14.10;99.90;;;;;;6132424;23;20031;-85
2023/08/30 01:37:46;;;;;;;13.60;12.10;;;14.10;99.90;;;;;;6157210;23;20084;-85
2023/08/30 01:40:15;;;;;;;14.10;12.60;;;14.10;99.90;;;;;;6131982;23;20454;-84
2023/08/30 01:42:42;;;;;;;15.38;7.38;;;14.10;99.90;;;;;;6156202;23;20027;-85
2023/08/30 01:45:13;;;;;;;12.95;11.65;;;14.00;99.90;;;;;;6156379;23;20013;-85
2023/08/30 01:47:40;;;;;;;11.05;6.72;;;14.00;99.90;;;;;;6156695;23;20067;-85
2023/08/30 01:50:07;;;;;;;14.52;13.15;;;14.00;99.90;;;;;;6156235;23;20389;-85
2023/08/30 01:52:33;;;;;;;12.15;7.10;;;14.00;99.90;;;;;;6131981;23;20649;-84
2023/08/30 01:55:00;;;;;;;14.20;12.68;;;13.90;99.90;;;;;;6132337;23;20005;-85
2023/08/30 01:57:26;;;;;;;12.55;6.50;;;13.90;99.90;;;;;;6156910;23;20020;-84
2023/08/30 01:59:52;;;;;;;11.63;6.53;;;13.90;99.90;;;;;;6156269;23;20005;-84
2023/08/30 02:02:17;;;;;;;14.93;12.55;;;13.80;99.90;;;;;;6131751;23;20009;-85
2023/08/30 02:04:43;;;;;;;14.55;12.55;;;13.90;99.90;;;;;;6131317;23;20016;-84
2023/08/30 02:07:19;;;;;;;11.13;6.40;;;13.90;99.90;;;;;;6132203;23;20081;-84
2023/08/30 02:09:58;;;;;;;12.80;7.70;;;13.80;99.90;;;;;;6131362;23;20528;-84
2023/08/30 02:12:27;;;;;;;12.63;6.68;;;13.70;99.90;;;;;;6156369;23;20051;-84
2023/08/30 02:14:53;;;;;;;15.68;12.75;;;13.70;99.90;;;;;;6156954;23;20005;-84
2023/08/30 02:17:19;;;;;;;14.93;13.43;;;13.80;99.90;;;;;;6154872;23;20015;-82
2023/08/30 02:19:46;;;;;;;11.57;6.75;;;13.80;99.90;;;;;;6152333;23;20013;-82
2023/08/30 02:22:12;;;;;;;14.55;12.90;;;13.70;99.90;;;;;;6156359;23;20009;-83
2023/08/30 02:24:37;;;;;;;13.48;12.07;;;13.80;99.90;;;;;;6157087;23;20477;-83
2023/08/30 02:27:03;;;;;;;13.02;7.03;;;13.80;99.90;;;;;;6133497;23;20044;-84
2023/08/30 02:29:29;;;;;;;13.15;6.85;;;13.70;99.90;;;;;;6157877;23;20045;-84
2023/08/30 02:31:55;;;;;;;12.18;7.32;;;13.60;99.90;;;;;;6157950;23;20024;-85
2023/08/30 02:34:20;;;;;;;14.48;12.75;;;13.60;99.90;;;;;;6133820;23;20021;-84
2023/08/30 02:36:46;;;;;;;11.38;7.07;;;13.60;99.90;;;;;;6158366;23;20394;-84
2023/08/30 02:39:15;;;;;;;14.73;12.48;;;13.60;99.90;;;;;;6158062;23;20009;-84
2023/08/30 02:41:40;;;;;;;14.32;12.45;;;13.60;99.90;;;;;;6157707;23;20048;-84
2023/08/30 02:44:11;;;;;;;15.50;14.00;;;13.60;99.90;;;;;;6133717;23;20016;-84
2023/08/30 02:46:41;;;;;;;16.63;7.60;;;13.60;99.90;;;;;;6158327;23;20009;-84
2023/08/30 02:49:07;;;;;;;13.35;6.88;;;13.50;99.90;;;;;;6157782;23;20012;-84
2023/08/30 02:51:32;;;;;;;13.73;7.90;;;13.50;99.90;;;;;;6157759;23;20454;-85
2023/08/30 02:53:58;;;;;;;13.80;7.72;;;13.50;99.90;;;;;;6157664;23;20021;-85
2023/08/30 02:56:25;;;;;;;13.82;7.90;;;13.50;99.90;;;;;;6157793;23;20040;-84
2023/08/30 02:58:50;;;;;;;14.35;7.88;;;13.50;99.90;;;;;;6157679;23;20490;-85
2023/08/30 03:01:16;;;;;;;17.75;14.38;;;13.40;99.90;;;;;;6157843;23;20013;-84
2023/08/30 03:03:42;;;;;;;16.58;14.93;;;13.50;99.90;;;;;;6133306;23;20459;-83
2023/08/30 03:06:07;;;;;;;13.60;7.03;;;13.60;99.90;;;;;;6157700;23;20020;-84
2023/08/30 03:08:33;;;;;;;12.60;6.72;;;13.50;99.90;;;;;;6157743;23;20245;-84
2023/08/30 03:11:09;;;;;;;13.45;7.20;;;13.50;99.90;;;;;;6157172;23;20025;-84
2023/08/30 03:13:36;;;;;;;14.38;8.98;;;13.50;99.90;;;;;;6157058;23;20386;-84
2023/08/30 03:16:09;;;;;;;16.08;14.27;;;13.40;99.90;;;;;;6133227;23;20075;-84
2023/08/30 03:18:35;;;;;;;;;;;13.50;99.90;;;;;;6158449;23;20451;-85
2023/08/30 03:21:03;;;;;;;13.90;7.75;;;13.50;99.90;;;;;;6132491;23;19919;-84
2023/08/30 03:23:31;;;;;;;12.57;7.32;;;13.40;99.90;;;;;;6157220;23;20355;-84
2023/08/30 03:25:58;;;;;;;16.75;14.98;;;13.40;99.90;;;;;;6132799;23;20140;-84
2023/08/30 03:28:23;;;;;;;12.60;8.10;;;13.40;99.90;;;;;;6132551;23;20016;-84
2023/08/30 03:30:49;;;;;;;15.43;13.63;;;13.40;99.90;;;;;;6157440;23;20523;-84
2023/08/30 03:33:15;;;;;;;13.15;8.07;;;13.40;99.90;;;;;;6157850;23;20463;-84
2023/08/30 03:35:40;;;;;;;16.10;14.40;;;13.40;99.90;;;;;;6157217;23;20402;-84
2023/08/30 03:38:06;;;;;;;16.58;14.82;;;13.40;99.90;;;;;;6157453;23;20009;-84
2023/08/30 03:40:32;;;;;;;12.85;7.45;;;13.40;99.90;;;;;;6133051;23;20025;-84
2023/08/30 03:42:58;;;;;;;15.68;6.95;;;13.40;99.90;;;;;;6132635;23;20016;-84
2023/08/30 03:45:23;;;;;;;15.63;9.05;;;13.30;99.90;;;;;;6157074;23;20140;-83
2023/08/30 03:47:49;;;;;;;14.23;7.18;;;13.20;99.90;;;;;;6157157;23;20048;-84
2023/08/30 03:50:15;;;;;;;12.80;7.43;;;13.20;99.90;;;;;;6156855;23;20019;-84
2023/08/30 03:52:40;;;;;;;12.52;7.40;;;13.20;99.90;;;;;;6157440;23;20021;-84
2023/08/30 03:55:06;;;;;;;13.15;7.00;;;13.10;99.90;;;;;;6132901;23;20009;-84
2023/08/30 03:57:32;;;;;;;17.73;9.15;;;13.10;99.90;;;;;;6157456;23;20450;-84
2023/08/30 03:59:58;;;;;;;13.85;6.53;;;13.10;99.90;;;;;;6157163;23;20095;-84
2023/08/30 04:02:23;;;;;;;15.73;7.85;;;13.10;99.90;;;;;;6156899;23;20012;-85
2023/08/30 04:04:49;;;;;;;13.88;8.00;;;13.00;99.90;;;;;;6156788;23;20041;-85
2023/08/30 04:07:15;;;;;;;17.50;15.80;;;13.00;99.90;;;;;;6157002;23;20013;-85
2023/08/30 04:09:41;;;;;;;14.52;7.88;;;13.10;99.90;;;;;;6156561;23;20005;-85
2023/08/30 04:12:07;;;;;;;16.80;15.00;;;13.10;99.90;;;;;;6156943;23;20402;-85
2023/08/30 04:14:32;;;;;;;13.18;7.85;;;13.10;99.90;;;;;;6156727;23;20017;-85
2023/08/30 04:16:58;;;;;;;13.27;7.53;;;13.00;99.90;;;;;;6157198;23;20083;-84
2023/08/30 04:19:23;;;;;;;15.05;7.20;;;13.00;99.90;;;;;;6132494;23;20072;-85
2023/08/30 04:21:49;;;;;;;16.77;15.07;;;12.90;99.90;;;;;;6132179;23;20467;-85
2023/08/30 04:24:15;;;;;;;17.55;15.77;;;13.00;99.90;;;;;;6156771;23;20017;-85
2023/08/30 04:26:41;;;;;;;18.00;15.82;;;13.10;99.90;;;;;;6132278;23;20019;-85
2023/08/30 04:29:07;;;;;;;14.25;7.38;;;13.10;99.90;;;;;;6156384;23;20092;-85
2023/08/30 04:31:32;;;;;;;15.05;8.40;;;13.00;99.90;;;;;;6156690;23;20017;-85
2023/08/30 04:33:58;;;;;;;14.02;7.38;;;12.90;99.90;;;;;;6156749;23;20013;-84
2023/08/30 04:36:23;;;;;;;15.55;9.10;;;12.90;99.90;;;;;;6132619;23;20478;-85
2023/08/30 04:38:49;;;;;;;18.13;15.57;;;12.90;99.90;;;;;;6157346;23;20088;-85
2023/08/30 04:41:15;;;;;;;17.90;8.00;;;12.90;99.90;;;;;;6156860;23;20055;-85
2023/08/30 04:43:40;;;;;;;12.32;6.38;;;12.90;99.90;;;;;;6157022;23;20020;-85
2023/08/30 04:46:06;;;;;;;12.40;7.18;;;12.90;99.90;;;;;;6156678;23;20351;-85
2023/08/30 04:48:31;;;;;;;11.70;6.93;;;12.80;99.90;;;;;;6156579;23;20017;-85
2023/08/30 04:51:04;;;;;;;15.55;7.78;;;12.80;99.90;;;;;;6132414;23;20017;-85
2023/08/30 04:53:30;;;;;;;14.27;7.35;;;12.80;99.90;;;;;;6132234;23;20009;-85
2023/08/30 04:55:56;;;;;;;13.57;7.90;;;12.80;99.90;;;;;;6132645;23;20016;-85
2023/08/30 04:58:22;;;;;;;17.23;15.52;;;12.80;99.90;;;;;;6157411;23;20009;-85
2023/08/30 05:00:47;;;;;;;16.83;15.10;;;12.90;99.90;;;;;;6156527;23;20348;-85
2023/08/30 05:03:13;;;;;;;13.60;7.15;;;12.90;99.90;;;;;;6156472;23;20020;-85
2023/08/30 05:05:38;;;;;;;13.75;7.35;;;12.90;99.90;;;;;;6156606;23;20016;-85
2023/08/30 05:08:04;;;;;;;11.85;6.70;;;12.90;99.90;;;;;;6156082;23;20017;-85
2023/08/30 05:10:30;;;;;;;17.55;15.68;;;12.80;99.90;;;;;;6155934;23;20009;-85
2023/08/30 05:12:55;;;;;;;17.02;15.27;;;13.00;99.90;;;;;;6156249;23;20084;-85
2023/08/30 05:15:21;;;;;;;15.68;7.32;;;13.00;99.90;;;;;;6156920;23;20357;-85
2023/08/30 05:17:47;;;;;;;11.90;6.35;;;13.00;99.90;;;;;;6156362;23;20529;-84
2023/08/30 05:20:13;;;;;;;13.52;7.78;;;12.90;99.90;;;;;;6132302;23;20092;-86
2023/08/30 05:22:39;;;;;;;17.38;15.48;;;13.00;99.90;;;;;;6156467;23;20013;-84
2023/08/30 05:25:05;;;;;;;15.52;7.72;;;13.00;99.90;;;;;;6131757;23;20011;-84
2023/08/30 05:27:30;;;;;;;13.50;5.88;;;13.00;99.90;;;;;;6156287;23;20096;-85
2023/08/30 05:29:56;;;;;;;12.38;6.22;;;13.00;99.90;;;;;;6155917;23;20461;-85
2023/08/30 05:32:22;;;;;;;12.82;6.88;;;13.00;99.90;;;;;;6131037;23;20417;-85
2023/08/30 05:34:47;;;;;;;14.02;8.57;;;13.00;99.90;;;;;;6130944;23;20013;-85
2023/08/30 05:37:13;;;;;;;17.98;16.05;;;13.00;99.90;;;;;;6156473;23;20013;-85
2023/08/30 05:39:39;;;;;;;12.57;6.80;;;13.10;99.90;;;;;;6131827;23;20009;-85
2023/08/30 05:42:05;;;;;;;15.15;8.35;;;13.20;99.90;;;;;;6156353;23;20092;-85
2023/08/30 05:44:30;;;;;;;13.65;7.53;;;13.10;99.90;;;;;;6156371;23;20100;-85
2023/08/30 05:46:56;;;;;;;14.73;8.35;;;13.10;99.90;;;;;;6155858;23;20048;-85
2023/08/30 05:49:21;;;;;;;16.30;8.45;;;13.10;99.90;;;;;;6156696;23;20477;-85
2023/08/30 05:51:47;;;;;;;14.20;6.95;;;13.10;99.90;;;;;;6156055;23;20009;-85
2023/08/30 05:54:13;;;;;;;14.40;9.40;;;13.10;99.90;;;;;;6156422;23;20439;-86
2023/08/30 05:56:39;;;;;;;14.52;7.35;;;13.20;99.90;;;;;;6156605;23;20047;-85
2023/08/30 05:59:05;;;;;;;18.02;15.93;;;13.20;99.90;;;;;;6158030;23;20053;-85
2023/08/30 06:01:30;;;;;;;13.48;8.70;;;13.30;99.90;;;;;;6158275;23;20356;-85
2023/08/30 06:03:56;;;;;;;18.85;16.98;;;13.30;99.90;;;;;;6158347;23;20067;-85
2023/08/30 06:06:22;;;;;;;14.90;7.88;;;13.40;99.90;;;;;;6158122;23;20023;-85
2023/08/30 06:08:47;;;;;;;14.20;7.30;;;13.40;99.90;;;;;;6157516;23;20092;-85
2023/08/30 06:11:14;;;;;;;18.88;16.90;;;13.40;99.90;;;;;;6157804;23;20013;-85
2023/08/30 06:13:40;;;;;;;18.90;8.25;;;13.50;99.90;;;;;;6133132;23;20347;-85
2023/08/30 06:16:06;;;;;;;18.55;16.60;;;13.50;99.90;;;;;;6158137;23;20044;-85
2023/08/30 06:18:32;;;;;;;20.13;17.30;;;13.60;99.90;;;;;;6158084;23;20067;-85
2023/08/30 06:20:58;;;;;;;14.23;8.27;;;13.60;99.90;;;;;;6133859;23;20041;-85
2023/08/30 06:23:23;;;;;;;14.02;7.97;;;13.60;99.90;;;;;;6132986;23;20084;-85
2023/08/30 06:25:56;;;;;;;19.52;17.48;;;13.60;99.90;;;;;;6132579;23;20020;-85
2023/08/30 06:28:22;;;;;;;;;;;13.60;99.90;;;;;;6158320;23;20545;-85
2023/08/30 06:30:47;;;;;;;14.43;8.15;;;13.60;99.90;;;;;;6182549;23;19943;-85
2023/08/30 06:33:13;;;;;;;13.65;7.20;;;13.60;99.90;;;;;;6157627;23;20013;-84
2023/08/30 06:35:39;;;;;;;15.23;7.72;;;13.60;99.90;;;;;;6158533;23;20021;-85
2023/08/30 06:38:05;;;;;;;19.15;17.25;;;13.60;99.90;;;;;;6158264;23;20494;-85
2023/08/30 06:40:39;;;;;;;14.23;8.77;;;13.70;99.90;;;;;;6133465;23;20016;-85
2023/08/30 06:43:04;;;;;;;13.35;7.68;;;13.80;99.90;;;;;;6132642;23;20116;-85
2023/08/30 06:45:30;;;;;;;20.40;18.30;;;13.80;99.90;;;;;;6158077;23;20447;-85
2023/08/30 06:47:56;;;;;;;16.92;9.98;;;13.80;99.90;;;;;;6157621;23;20459;-85
2023/08/30 06:50:21;;;;;;;15.45;9.93;;;13.90;99.90;;;;;;6157995;23;20013;-85
2023/08/30 06:52:47;;;;;;;19.80;17.83;;;13.90;99.90;;;;;;6157959;23;20020;-85
2023/08/30 06:55:12;;;;;;;21.05;17.25;;;14.00;99.90;;;;;;6158399;23;20017;-85
2023/08/30 06:57:38;;;;;;;17.67;9.25;;;14.10;99.90;;;;;;6157764;23;20451;-85
2023/08/30 07:00:07;;;;;;;19.77;17.48;;;14.10;99.90;;;;;;6133100;23;20040;-85
2023/08/30 07:02:37;;;;;;;15.07;9.15;;;14.20;99.90;;;;;;6133081;23;20009;-85
2023/08/30 07:05:04;;;;;;;17.05;9.27;;;14.30;99.90;;;;;;6158103;23;20010;-85
2023/08/30 07:07:31;;;;;;;17.27;9.77;;;14.30;99.90;;;;;;6157755;23;20410;-85
2023/08/30 07:09:56;;;;;;;15.60;8.85;;;14.40;99.90;;;;;;6156887;23;20052;-85
2023/08/30 07:12:22;;;;;;;20.38;18.25;;;14.40;99.90;;;;;;6132014;23;20347;-85
2023/08/30 07:14:47;;;;;;;16.88;10.82;;;14.50;99.90;;;;;;6156942;23;20009;-85
2023/08/30 07:17:13;;;;;;;19.52;17.45;;;14.60;99.90;;;;;;6158003;23;20093;-85
2023/08/30 07:19:39;;;;;;;15.15;8.02;;;14.70;99.90;;;;;;6158465;23;20375;-85
2023/08/30 07:22:05;;;;;;;15.13;8.05;;;14.70;99.90;;;;;;6133503;23;20006;-85
2023/08/30 07:24:30;;;;;;;18.45;16.55;;;14.70;99.90;;;;;;6158046;23;20450;-85
2023/08/30 07:26:56;;;;;;;15.93;8.40;;;14.80;99.90;;;;;;6157213;23;20040;-85
2023/08/30 07:29:22;;;;;;;18.48;16.58;;;14.80;99.90;;;;;;6157110;23;20019;-85
2023/08/30 07:31:47;;;;;;;18.88;16.88;;;14.80;99.90;;;;;;6157441;23;20366;-85
2023/08/30 07:34:13;;;;;;;17.70;15.82;;;14.90;99.90;;;;;;6132995;23;20041;-85
2023/08/30 07:36:39;;;;;;;15.30;7.97;;;14.90;99.90;;;;;;6157574;23;20009;-84
2023/08/30 07:39:04;;;;;;;17.65;15.82;;;14.90;99.90;;;;;;6158063;23;20016;-85
2023/08/30 07:41:31;;;;;;;15.25;8.45;;;15.00;99.90;;;;;;6157251;23;20009;-85
2023/08/30 07:43:57;;;;;;;17.23;15.38;;;15.00;99.90;;;;;;6132816;23;20017;-85
2023/08/30 07:46:23;;;;;;;13.30;6.38;;;15.00;99.90;;;;;;6156882;23;20095;-85
2023/08/30 07:48:48;;;;;;;16.90;9.60;;;15.10;99.90;;;;;;6157444;23;20013;-85
2023/08/30 07:51:14;;;;;;;12.55;8.00;;;15.10;99.90;;;;;;6157386;23;20021;-86
2023/08/30 07:53:39;;;;;;;14.35;7.40;;;15.10;99.90;;;;;;6157905;23;20070;-86
2023/08/30 07:56:05;;;;;;;16.33;14.45;;;15.10;99.90;;;;;;6157557;23;20478;-85
2023/08/30 07:58:30;;;;;;;17.77;15.50;;;15.30;99.90;;;;;;6157824;23;20009;-85
2023/08/30 08:00:56;;;;;;;18.35;15.90;;;15.40;99.90;;;;;;6157576;23;20009;-85
2023/08/30 08:03:22;;;;;;;16.67;14.85;;;15.50;99.90;;;;;;6157049;23;20402;-85
2023/08/30 08:05:47;;;;;;;18.77;15.68;;;15.70;99.90;;;;;;6157176;23;20017;-85
2023/08/30 08:08:14;;;;;;;18.15;7.95;;;15.80;99.90;;;;;;6157070;23;20040;-86
2023/08/30 08:10:40;;;;;;;16.52;6.28;;;15.90;99.90;;;;;;6156927;23;20347;-86
2023/08/30 08:13:05;;;;;;;16.25;14.55;;;16.00;99.90;;;;;;6157650;23;20013;-86
2023/08/30 08:15:32;;;;;;;16.52;14.77;;;16.10;99.90;;;;;;6133275;23;20328;-86
2023/08/30 08:17:57;;;;;;;16.20;14.25;;;16.20;99.90;;;;;;6156715;23;20016;-86
2023/08/30 08:20:23;;;;;;;14.95;7.82;;;16.30;99.90;;;;;;6132824;23;20041;-86
2023/08/30 08:22:49;;;;;;;15.45;13.80;;;16.20;99.90;;;;;;6132740;23;20020;-86
2023/08/30 08:25:15;;;;;;;17.00;8.75;;;16.20;99.90;;;;;;6157349;23;20024;-85
2023/08/30 08:27:41;;;;;;;13.88;7.07;;;16.20;99.90;;;;;;6131563;23;20008;-86
2023/08/30 08:30:09;;;;;;;16.60;9.55;;;16.20;99.90;;;;;;6157342;23;20020;-85
2023/08/30 08:32:35;;;;;;;17.98;14.38;;;16.20;99.90;;;;;;6156362;23;20095;-85
2023/08/30 08:35:00;;;;;;;17.00;14.82;;;16.20;99.90;;;;;;6157116;23;20009;-85
2023/08/30 08:37:26;;;;;;;16.25;14.55;;;16.30;99.90;;;;;;6157262;23;20017;-85
2023/08/30 08:39:52;;;;;;;17.13;14.48;;;16.30;99.90;;;;;;6132336;23;20020;-85
2023/08/30 08:42:22;;;;;;;16.55;13.95;;;16.30;99.90;;;;;;6157186;23;20040;-86
2023/08/30 08:44:50;;;;;;;19.42;14.88;;;16.30;99.90;;;;;;6157073;23;20040;-85
2023/08/30 08:47:20;;;;;;;15.10;8.52;;;16.30;99.90;;;;;;6156396;23;20017;-86
2023/08/30 08:49:47;;;;;;;16.23;14.52;;;16.30;99.90;;;;;;6156179;23;20047;-85
2023/08/30 08:52:14;;;;;;;14.98;8.45;;;16.20;99.90;;;;;;6132182;23;20017;-85
2023/08/30 08:54:41;;;;;;;18.08;15.05;;;16.20;99.90;;;;;;6156199;23;20020;-85
2023/08/30 08:57:07;;;;;;;16.85;14.45;;;16.20;99.90;;;;;;6157106;23;20028;-85
2023/08/30 08:59:33;;;;;;;17.38;8.82;;;16.20;99.90;;;;;;6156439;23;20060;-85
2023/08/30 09:02:02;;;;;;;15.63;13.68;;;16.20;99.90;;;;;;6157073;23;20005;-85
2023/08/30 09:04:32;;;;;;;17.17;14.77;;;16.20;99.90;;;;;;6156738;23;20013;-85
2023/08/30 09:07:02;;;;;;;16.55;14.15;;;16.20;99.90;;;;;;6131504;23;20017;-85
2023/08/30 09:09:27;;;;;;;14.75;8.02;;;16.20;99.90;;;;;;6156290;23;20016;-85
2023/08/30 09:11:53;;;;;;;14.18;12.50;;;16.20;99.90;;;;;;6156281;23;20020;-85
2023/08/30 09:14:19;;;;;;;14.25;8.23;;;16.20;99.90;;;;;;6151617;23;20017;-83
2023/08/30 09:17:17;;;;;;;13.32;8.82;;;16.10;99.90;;;;;;6155910;23;20462;-84
2023/08/30 09:19:43;;;;;;;16.73;13.57;;;16.00;99.90;;;;;;6042061;23;20025;-85
2023/08/30 09:22:08;;;;;;;14.77;12.57;;;16.10;99.90;;;;;;6066307;23;20010;-84
2023/08/30 09:24:40;;;;;;;13.88;7.55;;;16.10;99.90;;;;;;6067485;23;20029;-85
2023/08/30 09:27:06;;;;;;;14.70;12.13;;;16.10;99.90;;;;;;6066771;23;20720;-84
2023/08/30 09:29:32;;;;;;;17.75;13.88;;;16.00;99.90;;;;;;6066552;23;20019;-85
2023/08/30 09:31:58;;;;;;;15.00;7.75;;;16.00;99.90;;;;;;6066894;23;20018;-86
2023/08/30 09:34:26;;;;;;;12.18;6.88;;;16.00;99.90;;;;;;6067173;23;20018;-85
2023/08/30 09:36:52;;;;;;;15.02;13.43;;;15.90;99.90;;;;;;6067337;23;20135;-85
2023/08/30 09:39:18;;;;;;;14.48;8.75;;;15.90;99.90;;;;;;6067480;23;20198;-85
2023/08/30 09:41:46;;;;;;;16.35;13.50;;;15.90;99.90;;;;;;6067578;23;20049;-85
2023/08/30 09:44:12;;;;;;;12.65;7.25;;;15.90;99.90;;;;;;6090968;23;20025;-85
2023/08/30 09:46:46;;;;;;;14.20;7.90;;;15.80;99.90;;;;;;6066200;23;20018;-85
2023/08/30 09:49:12;;;;;;;14.60;7.93;;;15.70;99.90;;;;;;6066631;23;20014;-85
2023/08/30 09:51:43;;;;;;;17.13;8.25;;;15.70;99.90;;;;;;6090926;23;20502;-85
2023/08/30 09:54:18;;;;;;;13.05;10.80;;;15.70;99.90;;;;;;6068325;23;20021;-85
2023/08/30 09:56:44;;;;;;;14.40;7.32;;;15.70;99.90;;;;;;6131551;23;20013;-84
2023/08/30 09:59:11;;;;;;;16.10;11.65;;;15.70;99.90;;;;;;6131602;23;20009;-84
2023/08/30 10:01:38;;;;;;;12.10;9.23;;;15.70;99.90;;;;;;6131106;23;20017;-84
2023/08/30 10:04:05;;;;;;;10.10;5.35;;;15.70;99.90;;;;;;6130943;23;20013;-84
2023/08/30 10:06:33;;;;;;;12.15;8.98;;;15.70;99.90;;;;;;6131013;23;20020;-84
2023/08/30 10:08:59;;;;;;;11.07;8.32;;;15.70;99.90;;;;;;6155983;23;20083;-84
2023/08/30 10:11:28;;;;;;;11.35;8.95;;;15.70;99.90;;;;;;6156135;23;20036;-85
2023/08/30 10:13:55;;;;;;;12.32;9.80;;;15.70;99.90;;;;;;6156017;23;20068;-85
2023/08/30 10:16:24;;;;;;;10.95;4.90;;;15.80;99.90;;;;;;6131596;23;20017;-85
2023/08/30 10:18:54;;;;;;;14.68;6.47;;;15.80;99.90;;;;;;6156098;23;20087;-85
2023/08/30 10:21:21;;;;;;;14.30;11.30;;;15.70;99.90;;;;;;6156582;23;20005;-85
2023/08/30 10:23:50;;;;;;;12.93;7.00;;;15.90;99.90;;;;;;6155705;23;20049;-85
2023/08/30 10:26:17;;;;;;;14.70;12.18;;;15.90;99.90;;;;;;6155874;23;20017;-85
2023/08/30 10:28:45;;;;;;;14.90;12.18;;;15.90;99.90;;;;;;6131609;23;20009;-85
2023/08/30 10:31:13;;;;;;;13.50;11.00;;;16.00;99.90;;;;;;6131500;23;20020;-85
2023/08/30 10:33:49;;;;;;;13.30;5.65;;;16.00;99.90;;;;;;6156711;23;20013;-85
2023/08/30 10:36:21;;;;;;;13.07;11.13;;;15.90;99.90;;;;;;6156432;23;20024;-85
2023/08/30 10:38:51;;;;;;;13.10;7.13;;;16.00;99.90;;;;;;6131796;23;20040;-85
2023/08/30 10:41:25;;;;;;;13.68;11.45;;;15.90;99.90;;;;;;6156401;23;20320;-85
2023/08/30 10:43:55;;;;;;;11.05;6.25;;;15.90;99.90;;;;;;6155853;23;20092;-85
2023/08/30 10:46:34;;;;;;;16.10;11.00;;;15.90;99.90;;;;;;6133502;23;20016;-85
2023/08/30 10:49:15;;;;;;;12.68;6.95;;;15.90;99.90;;;;;;6157737;23;20023;-85
2023/08/30 10:51:41;;;;;;;13.45;11.70;;;15.80;99.90;;;;;;6133451;23;20017;-85
2023/08/30 10:54:15;;;;;;;12.55;6.05;;;15.80;99.90;;;;;;6158697;23;20024;-86
2023/08/30 10:56:48;;;;;;;14.02;11.80;;;15.80;99.90;;;;;;6158044;23;20355;-85
2023/08/30 10:59:20;;;;;;;13.57;12.13;;;15.80;99.90;;;;;;6157517;23;20009;-85
2023/08/30 11:01:46;;;;;;;13.80;12.30;;;15.90;99.90;;;;;;6157886;23;20012;-85
2023/08/30 11:04:14;;;;;;;14.88;12.25;;;15.90;99.90;;;;;;6157406;23;20017;-85
2023/08/30 11:06:42;;;;;;;11.07;6.75;;;15.90;99.90;;;;;;6157519;23;20017;-85
2023/08/30 11:09:08;;;;;;;12.25;7.85;;;15.80;99.90;;;;;;6156678;23;20351;-85
2023/08/30 11:11:36;;;;;;;14.15;12.48;;;15.70;99.90;;;;;;6156288;23;20020;-85
2023/08/30 11:14:09;;;;;;;13.50;7.13;;;15.80;99.90;;;;;;6157593;23;20467;-85
2023/08/30 11:16:35;;;;;;;12.93;7.60;;;15.70;99.90;;;;;;6133007;23;20013;-85
2023/08/30 11:19:03;;;;;;;13.75;12.35;;;15.70;99.90;;;;;;6133213;23;20016;-85
2023/08/30 11:21:43;;;;;;;14.80;13.18;;;15.70;99.90;;;;;;6133263;23;20015;-85
2023/08/30 11:24:09;;;;;;;14.13;7.60;;;15.80;99.90;;;;;;6132509;23;20017;-85
2023/08/30 11:26:34;;;;;;;12.68;8.02;;;15.70;99.90;;;;;;6132889;23;20009;-85
2023/08/30 11:29:07;;;;;;;15.45;13.63;;;15.60;99.90;;;;;;6157207;23;20059;-85
2023/08/30 11:31:33;;;;;;;;;;;15.70;99.90;;;;;;6184743;23;20013;-85
2023/08/30 11:33:59;;;;;;;13.75;7.50;;;15.60;99.90;;;;;;6157641;23;20330;-85
2023/08/30 11:36:30;;;;;;;16.00;14.40;;;15.60;99.90;;;;;;6157924;23;20024;-85
2023/08/30 11:38:57;;;;;;;16.55;14.80;;;15.60;99.90;;;;;;6157595;23;20009;-85
2023/08/30 11:41:24;;;;;;;16.90;15.10;;;15.70;99.90;;;;;;6133659;23;20017;-85
2023/08/30 11:43:50;;;;;;;20.27;18.10;;;15.70;99.90;;;;;;6132806;23;20017;-85
2023/08/30 11:46:20;;;;;;;12.98;8.30;;;15.80;99.90;;;;;;6157655;23;20019;-85
2023/08/30 11:48:47;;;;;;;17.70;15.90;;;15.70;99.90;;;;;;6156751;23;20009;-85
2023/08/30 11:51:13;;;;;;;17.25;15.55;;;15.80;99.90;;;;;;6157271;23;20017;-85
2023/08/30 11:53:40;;;;;;;17.67;15.88;;;15.80;99.90;;;;;;6132561;23;20044;-85
2023/08/30 11:56:07;;;;;;;11.90;6.88;;;15.80;99.90;;;;;;6157293;23;20497;-85
2023/08/30 11:58:33;;;;;;;11.77;8.10;;;15.70;99.90;;;;;;6158014;23;20544;-85
2023/08/30 12:00:59;;;;;;;17.15;15.38;;;15.70;99.90;;;;;;6132415;23;20060;-85
2023/08/30 12:03:29;;;;;;;16.45;14.80;;;15.70;99.90;;;;;;6132390;23;20021;-85
2023/08/30 12:05:55;;;;;;;14.20;8.15;;;15.80;99.90;;;;;;6132164;23;20013;-84
2023/08/30 12:08:24;;;;;;;17.63;14.93;;;15.80;99.90;;;;;;6132288;23;20084;-86
2023/08/30 12:10:50;;;;;;;17.13;15.40;;;15.80;99.90;;;;;;6157223;23;20016;-86
2023/08/30 12:13:26;;;;;;;13.90;7.97;;;15.80;99.90;;;;;;6157376;23;20020;-85
2023/08/30 12:15:56;;;;;;;14.52;8.45;;;15.80;99.90;;;;;;6157378;23;20009;-85
2023/08/30 12:18:31;;;;;;;16.92;15.20;;;15.80;99.90;;;;;;6157622;23;20020;-86
2023/08/30 12:20:58;;;;;;;11.70;7.50;;;15.80;99.90;;;;;;6157230;23;20095;-86
2023/08/30 12:23:26;;;;;;;14.93;13.43;;;15.80;99.90;;;;;;6156121;23;20048;-86
2023/08/30 12:26:06;;;;;;;12.90;7.63;;;15.90;99.90;;;;;;6132670;23;20087;-85
2023/08/30 12:28:35;;;;;;;14.15;12.75;;;15.90;99.90;;;;;;6156228;23;20016;-86
2023/08/30 12:31:01;;;;;;;14.48;13.02;;;15.90;99.90;;;;;;6156363;23;20101;-86
2023/08/30 12:33:30;;;;;;;14.40;12.90;;;16.00;99.90;;;;;;6156516;23;20131;-85